Terminal Aerodrome Forecast
Issued by NWS Brownsville, TX

Home | Current Version | Previous Version | Text Only | Print | Product List | Glossary On
Versions: 1 2 3 4 5 6 7 8 9 10 11 12 13 14 15 16 17 18 19 20 21 22 23
736
FTUS44 KBRO 272329
TAFMFE
TAF
KMFE 272329Z 2800/2824 10006KT P6SM FEW030 SCT250
     FM281900 09008KT P6SM VCTS SCT035CB SCT050 BKN250=

USA.gov is the U.S. government's official web portal to all federal, state and local government web resources and services.